createdAt,value
2017-04-30T00:00:16.319Z,0
2017-04-30T00:00:56.836Z,0
2017-04-30T00:01:37.361Z,0
2017-04-30T00:02:17.878Z,0
2017-04-30T00:02:58.402Z,0
2017-04-30T00:03:38.923Z,0
2017-04-30T00:04:19.436Z,0
2017-04-30T00:04:59.954Z,0
2017-04-30T00:05:40.467Z,0
2017-04-30T00:06:20.975Z,0
2017-04-30T00:07:01.534Z,0
2017-04-30T00:07:42.055Z,0
2017-04-30T00:08:22.625Z,0
2017-04-30T00:09:03.158Z,0
2017-04-30T00:09:43.675Z,0
2017-04-30T00:10:24.180Z,0
2017-04-30T00:11:04.683Z,0
2017-04-30T00:11:45.223Z,0
2017-04-30T00:12:25.753Z,0
2017-04-30T00:13:06.270Z,0
2017-04-30T00:13:46.794Z,0
2017-04-30T00:14:27.326Z,0
2017-04-30T00:15:07.854Z,0
2017-04-30T00:15:48.379Z,0
2017-04-30T00:16:28.903Z,0
2017-04-30T00:17:09.421Z,0
2017-04-30T00:17:49.958Z,0
2017-04-30T00:18:30.475Z,0
2017-04-30T00:19:10.990Z,0
2017-04-30T00:19:51.507Z,0
2017-04-30T00:20:32.032Z,0
2017-04-30T00:21:12.547Z,0
2017-04-30T00:21:53.072Z,0
2017-04-30T00:22:33.595Z,0
2017-04-30T00:23:14.162Z,0
2017-04-30T00:23:54.646Z,0
2017-04-30T00:24:35.158Z,0
2017-04-30T00:25:15.671Z,0
2017-04-30T00:25:56.193Z,0
2017-04-30T00:26:36.715Z,0
2017-04-30T00:27:17.232Z,0
2017-04-30T00:27:57.743Z,0
2017-04-30T00:28:38.274Z,0
2017-04-30T00:29:18.803Z,0
2017-04-30T00:29:59.323Z,0
2017-04-30T00:30:39.844Z,0
2017-04-30T00:31:20.358Z,0
2017-04-30T00:32:00.874Z,0
2017-04-30T00:32:41.388Z,0
2017-04-30T00:33:21.927Z,0
2017-04-30T00:34:02.442Z,0
2017-04-30T00:34:42.971Z,0
2017-04-30T00:35:23.490Z,0
2017-04-30T00:36:04.114Z,0
2017-04-30T00:36:44.624Z,0
2017-04-30T00:37:25.150Z,0
2017-04-30T00:38:05.771Z,0
2017-04-30T00:38:46.314Z,0
2017-04-30T00:39:26.835Z,0
2017-04-30T00:40:07.360Z,0
2017-04-30T00:40:47.871Z,0
2017-04-30T00:41:28.389Z,0
2017-04-30T00:42:08.900Z,0
2017-04-30T00:42:49.418Z,0
2017-04-30T00:43:29.950Z,0
2017-04-30T00:44:10.470Z,0
2017-04-30T00:44:51.017Z,0
2017-04-30T00:45:31.504Z,0
2017-04-30T00:46:12.025Z,0
2017-04-30T00:46:52.539Z,0
2017-04-30T00:47:33.056Z,0
2017-04-30T00:48:13.581Z,0
2017-04-30T00:48:54.114Z,0
2017-04-30T00:49:34.628Z,0
2017-04-30T00:50:15.139Z,0
2017-04-30T00:50:55.654Z,0
2017-04-30T00:51:36.177Z,0
2017-04-30T00:52:16.689Z,0
2017-04-30T00:52:57.217Z,0
2017-04-30T00:53:37.739Z,0
2017-04-30T00:54:18.253Z,0
2017-04-30T00:54:58.788Z,0
2017-04-30T00:55:39.311Z,0
2017-04-30T00:56:19.832Z,0
2017-04-30T00:57:00.357Z,0
2017-04-30T00:57:40.886Z,0
2017-04-30T00:58:21.392Z,0
2017-04-30T00:59:01.909Z,0
2017-04-30T00:59:42.434Z,0
2017-04-30T01:00:22.970Z,0
2017-04-30T01:01:03.492Z,0
2017-04-30T01:01:44.039Z,0
2017-04-30T01:02:24.549Z,0
2017-04-30T01:03:05.082Z,0
2017-04-30T01:03:45.596Z,0
2017-04-30T01:04:26.127Z,0
2017-04-30T01:05:06.611Z,0
2017-04-30T01:05:47.134Z,0
2017-04-30T01:06:27.649Z,0
2017-04-30T01:07:08.179Z,0
2017-04-30T01:07:48.723Z,0
2017-04-30T01:08:29.239Z,0
2017-04-30T01:09:09.745Z,0
2017-04-30T01:09:50.275Z,0
2017-04-30T01:10:30.795Z,0
2017-04-30T01:11:11.308Z,0
2017-04-30T01:11:51.852Z,0
2017-04-30T01:12:32.373Z,0
2017-04-30T01:13:12.892Z,0
2017-04-30T01:13:53.423Z,0
2017-04-30T01:14:33.941Z,0
2017-04-30T01:15:14.467Z,0
2017-04-30T01:15:54.986Z,0
2017-04-30T01:16:35.516Z,0
2017-04-30T01:17:16.016Z,0
2017-04-30T01:17:56.511Z,0
2017-04-30T01:18:37.048Z,0
2017-04-30T01:19:17.579Z,0
2017-04-30T01:19:58.134Z,0
2017-04-30T01:20:38.618Z,0
2017-04-30T01:21:19.187Z,0
2017-04-30T01:21:59.702Z,0
2017-04-30T01:22:40.187Z,0
2017-04-30T01:23:20.710Z,0
2017-04-30T01:24:01.159Z,0
2017-04-30T01:24:41.685Z,0
2017-04-30T01:25:22.227Z,0
2017-04-30T01:26:02.774Z,0
2017-04-30T01:26:43.312Z,0
2017-04-30T01:27:23.831Z,0
2017-04-30T01:28:04.314Z,0
2017-04-30T01:28:44.814Z,0
2017-04-30T01:29:25.297Z,0
2017-04-30T01:30:05.812Z,0
2017-04-30T01:30:46.329Z,0
2017-04-30T01:31:26.818Z,0
2017-04-30T01:32:07.337Z,0
2017-04-30T01:32:47.847Z,0
2017-04-30T01:33:28.365Z,0
2017-04-30T01:34:08.897Z,0
2017-04-30T01:34:49.412Z,0
2017-04-30T01:35:29.927Z,0
2017-04-30T01:36:10.474Z,0
2017-04-30T01:36:50.990Z,0
2017-04-30T01:37:31.519Z,0
2017-04-30T01:38:12.033Z,0
2017-04-30T01:38:52.546Z,0
2017-04-30T01:39:33.040Z,0
2017-04-30T01:40:13.566Z,0
2017-04-30T01:40:54.077Z,0
2017-04-30T01:41:34.611Z,0
2017-04-30T01:42:15.130Z,0
2017-04-30T01:42:55.657Z,0
2017-04-30T01:43:36.184Z,0
2017-04-30T01:44:16.714Z,0
2017-04-30T01:44:57.215Z,0
2017-04-30T01:45:38.552Z,0
2017-04-30T01:46:18.270Z,0
2017-04-30T01:46:58.800Z,0
2017-04-30T01:47:39.316Z,0
2017-04-30T01:48:19.837Z,0
2017-04-30T01:49:00.341Z,0
2017-04-30T01:49:40.855Z,0
2017-04-30T01:50:21.360Z,0
2017-04-30T01:51:01.890Z,0
2017-04-30T01:51:42.410Z,0
2017-04-30T01:52:22.924Z,0
2017-04-30T01:53:03.447Z,0
2017-04-30T01:53:43.971Z,0
2017-04-30T01:54:24.492Z,0
2017-04-30T01:55:05.000Z,0
2017-04-30T01:55:45.529Z,0
2017-04-30T01:56:26.026Z,0
2017-04-30T01:57:06.539Z,0
2017-04-30T01:57:47.053Z,0
2017-04-30T01:58:27.576Z,0
2017-04-30T01:59:08.089Z,0
2017-04-30T01:59:48.612Z,0
2017-04-30T02:00:29.123Z,0
2017-04-30T02:01:09.677Z,0
2017-04-30T02:01:50.177Z,0
2017-04-30T02:02:30.689Z,0
2017-04-30T02:03:11.209Z,0
2017-04-30T02:03:51.726Z,0
2017-04-30T02:04:32.230Z,0
2017-04-30T02:05:12.772Z,0
2017-04-30T02:05:53.303Z,0
2017-04-30T02:06:33.817Z,0
2017-04-30T02:07:14.342Z,0
2017-04-30T02:07:54.868Z,0
2017-04-30T02:08:35.388Z,0
2017-04-30T02:09:15.914Z,0
2017-04-30T02:09:56.418Z,0
2017-04-30T02:10:36.940Z,0
2017-04-30T02:11:17.474Z,0
2017-04-30T02:11:58.005Z,0
2017-04-30T02:12:38.535Z,0
2017-04-30T02:13:19.059Z,0
2017-04-30T02:13:59.589Z,0
2017-04-30T02:14:40.123Z,0
2017-04-30T02:15:20.629Z,0
2017-04-30T02:16:01.166Z,0
2017-04-30T02:16:41.676Z,0
2017-04-30T02:17:22.191Z,0
2017-04-30T02:18:02.717Z,0
2017-04-30T02:18:43.234Z,0
2017-04-30T02:19:23.760Z,0
2017-04-30T02:20:04.295Z,0
2017-04-30T02:20:44.817Z,0
2017-04-30T02:21:25.344Z,0
2017-04-30T02:22:05.868Z,0
2017-04-30T02:22:46.387Z,0
2017-04-30T02:23:26.909Z,0
2017-04-30T02:24:07.434Z,0
2017-04-30T02:24:47.938Z,0
2017-04-30T02:25:28.466Z,0
2017-04-30T02:26:08.985Z,0
2017-04-30T02:26:49.502Z,0
2017-04-30T02:27:30.028Z,0
2017-04-30T02:28:10.554Z,0
2017-04-30T02:28:51.074Z,0
2017-04-30T02:29:31.595Z,0
2017-04-30T02:30:12.123Z,0
2017-04-30T02:30:52.636Z,0
2017-04-30T02:31:33.153Z,0
2017-04-30T02:32:13.681Z,0
2017-04-30T02:32:54.233Z,0
2017-04-30T02:33:34.708Z,0
2017-04-30T02:34:15.192Z,0
2017-04-30T02:34:55.689Z,0
2017-04-30T02:35:36.187Z,0
2017-04-30T02:36:16.691Z,0
2017-04-30T02:36:57.195Z,0
2017-04-30T02:37:37.688Z,0
2017-04-30T02:38:18.218Z,0
2017-04-30T02:38:58.727Z,0
2017-04-30T02:39:39.206Z,0
2017-04-30T02:40:19.725Z,0
2017-04-30T02:41:00.257Z,0
2017-04-30T02:41:40.775Z,0
2017-04-30T02:42:21.294Z,0
2017-04-30T02:43:01.819Z,0
2017-04-30T02:43:42.363Z,0
2017-04-30T02:44:22.827Z,0
2017-04-30T02:45:03.339Z,0
2017-04-30T02:45:43.861Z,0
2017-04-30T02:46:24.394Z,0
2017-04-30T02:47:04.921Z,0
2017-04-30T02:47:45.453Z,0
2017-04-30T02:48:25.979Z,0
2017-04-30T02:49:06.494Z,0
2017-04-30T02:49:47.018Z,0
2017-04-30T02:50:27.526Z,0
2017-04-30T02:51:08.038Z,0
2017-04-30T02:51:48.551Z,0
2017-04-30T02:52:29.075Z,0
2017-04-30T02:53:09.604Z,0
2017-04-30T02:53:50.126Z,0
2017-04-30T02:54:30.646Z,0
2017-04-30T02:55:11.172Z,0
2017-04-30T02:55:51.668Z,0
2017-04-30T02:56:32.211Z,0
2017-04-30T02:57:12.726Z,0
2017-04-30T02:57:53.259Z,0
2017-04-30T02:58:33.776Z,0
2017-04-30T02:59:14.293Z,0
2017-04-30T02:59:54.838Z,0
2017-04-30T03:00:35.357Z,0
2017-04-30T03:01:15.880Z,0
2017-04-30T03:01:56.394Z,0
2017-04-30T03:02:36.928Z,0
2017-04-30T03:03:17.435Z,0
2017-04-30T03:03:57.970Z,0
2017-04-30T03:04:38.478Z,0
2017-04-30T03:05:19.002Z,0
2017-04-30T03:05:59.530Z,0
2017-04-30T03:06:40.042Z,0
2017-04-30T03:07:20.564Z,0
2017-04-30T03:08:01.091Z,0
2017-04-30T03:08:41.615Z,0
2017-04-30T03:09:22.128Z,0
2017-04-30T03:10:02.645Z,0
2017-04-30T03:10:43.161Z,0
2017-04-30T03:11:23.687Z,0
2017-04-30T03:12:04.214Z,0
2017-04-30T03:12:44.731Z,0
2017-04-30T03:13:25.248Z,0
2017-04-30T03:14:05.766Z,0
2017-04-30T03:14:46.293Z,0
2017-04-30T03:15:26.814Z,0
2017-04-30T03:16:07.322Z,0
2017-04-30T03:16:47.857Z,0
2017-04-30T03:17:28.365Z,0
2017-04-30T03:18:08.875Z,0
2017-04-30T03:18:49.396Z,0
2017-04-30T03:19:29.927Z,0
2017-04-30T03:20:10.443Z,0
2017-04-30T03:20:50.972Z,0
2017-04-30T03:21:31.496Z,0
2017-04-30T03:22:12.010Z,0
2017-04-30T03:22:52.542Z,0
2017-04-30T03:23:33.069Z,0
2017-04-30T03:24:13.607Z,0
2017-04-30T03:24:54.132Z,0
2017-04-30T03:25:34.652Z,0
2017-04-30T03:26:15.173Z,0
2017-04-30T03:26:55.653Z,0
2017-04-30T03:27:36.154Z,0
2017-04-30T03:28:16.627Z,0
2017-04-30T03:28:57.162Z,0
2017-04-30T03:29:37.691Z,0
2017-04-30T03:30:18.507Z,0
2017-04-30T03:30:58.666Z,4
2017-04-30T03:31:39.197Z,4
2017-04-30T03:32:19.733Z,0
2017-04-30T03:33:00.256Z,0
2017-04-30T03:33:40.776Z,0
2017-04-30T03:34:21.286Z,4
2017-04-30T03:35:01.815Z,4
2017-04-30T03:35:42.328Z,0
2017-04-30T03:36:22.849Z,4
2017-04-30T03:37:03.375Z,4
2017-04-30T03:37:43.889Z,4
2017-04-30T03:38:24.404Z,4
2017-04-30T03:39:04.929Z,4
2017-04-30T03:39:45.460Z,4
2017-04-30T03:40:25.981Z,4
2017-04-30T03:41:06.496Z,8
2017-04-30T03:41:47.017Z,8
2017-04-30T03:42:27.535Z,8
2017-04-30T03:43:08.065Z,8
2017-04-30T03:43:48.580Z,8
2017-04-30T03:44:29.092Z,12
2017-04-30T03:45:09.634Z,12
2017-04-30T03:45:50.142Z,12
2017-04-30T03:46:30.657Z,16
2017-04-30T03:47:11.185Z,16
2017-04-30T03:47:51.702Z,20
2017-04-30T03:48:32.211Z,20
2017-04-30T03:49:12.722Z,20
2017-04-30T03:49:53.237Z,28
2017-04-30T03:50:33.751Z,28
2017-04-30T03:51:14.273Z,32
2017-04-30T03:51:54.792Z,32
2017-04-30T03:52:35.311Z,36
2017-04-30T03:53:15.827Z,44
2017-04-30T03:53:56.331Z,44
2017-04-30T03:54:36.856Z,48
2017-04-30T03:55:17.373Z,52
2017-04-30T03:55:57.869Z,60
2017-04-30T03:56:38.381Z,60
2017-04-30T03:57:18.904Z,68
2017-04-30T03:57:59.397Z,76
2017-04-30T03:58:39.919Z,80
2017-04-30T03:59:20.484Z,88
2017-04-30T04:00:00.992Z,92
2017-04-30T04:00:41.501Z,100
2017-04-30T04:01:22.041Z,108
2017-04-30T04:02:02.565Z,116
2017-04-30T04:02:43.080Z,128
2017-04-30T04:03:23.601Z,132
2017-04-30T04:04:04.127Z,140
2017-04-30T04:04:44.614Z,152
2017-04-30T04:05:25.129Z,164
2017-04-30T04:06:05.646Z,168
2017-04-30T04:06:46.153Z,184
2017-04-30T04:07:26.672Z,192
2017-04-30T04:08:07.194Z,204
2017-04-30T04:08:47.688Z,216
2017-04-30T04:09:28.208Z,228
2017-04-30T04:10:08.737Z,240
2017-04-30T04:10:49.246Z,252
2017-04-30T04:11:29.762Z,268
2017-04-30T04:12:10.281Z,280
2017-04-30T04:14:43.900Z,344
2017-04-30T04:15:24.414Z,360
2017-04-30T04:16:04.926Z,376
2017-04-30T04:16:45.434Z,396
2017-04-30T04:17:25.958Z,412
2017-04-30T04:18:06.474Z,432
2017-04-30T04:18:46.983Z,452
2017-04-30T04:19:27.517Z,472
2017-04-30T04:20:08.002Z,492
2017-04-30T04:20:48.518Z,516
2017-04-30T04:21:29.026Z,536
2017-04-30T04:22:09.568Z,560
2017-04-30T04:22:50.078Z,580
2017-04-30T04:23:30.604Z,604
2017-04-30T04:24:11.115Z,632
2017-04-30T04:24:51.628Z,652
2017-04-30T04:25:32.135Z,676
2017-04-30T04:26:12.648Z,700
2017-04-30T04:26:53.172Z,724
2017-04-30T04:27:33.690Z,748
2017-04-30T04:28:14.212Z,772
2017-04-30T04:28:54.741Z,796
2017-04-30T04:29:35.258Z,820
2017-04-30T04:30:15.766Z,844
2017-04-30T04:30:56.293Z,872
2017-04-30T04:31:36.809Z,900
2017-04-30T04:32:17.330Z,924
2017-04-30T04:32:57.859Z,944
2017-04-30T04:33:38.373Z,972
2017-04-30T04:34:18.890Z,996
2017-04-30T04:34:59.427Z,1016
2017-04-30T04:35:39.948Z,1044
2017-04-30T04:36:20.466Z,1068
2017-04-30T04:37:00.981Z,1092
2017-04-30T04:37:41.491Z,1116
2017-04-30T04:38:22.002Z,1140
2017-04-30T04:39:02.513Z,1160
2017-04-30T04:39:43.038Z,1188
2017-04-30T04:40:23.554Z,1216
2017-04-30T04:41:04.077Z,1240
2017-04-30T04:41:44.605Z,1260
2017-04-30T04:42:25.114Z,1288
2017-04-30T04:43:05.625Z,1312
2017-04-30T04:43:46.141Z,1336
2017-04-30T04:44:26.687Z,1364
2017-04-30T04:45:07.205Z,1388
2017-04-30T04:45:47.807Z,1416
2017-04-30T04:46:28.325Z,1440
2017-04-30T04:47:08.736Z,1460
2017-04-30T04:47:49.251Z,1492
2017-04-30T04:48:29.766Z,1516
2017-04-30T04:49:10.292Z,1536
2017-04-30T04:49:50.817Z,1560
2017-04-30T04:50:31.324Z,1580
2017-04-30T04:51:11.841Z,1604
2017-04-30T04:51:52.372Z,1620
2017-04-30T04:52:32.891Z,1652
2017-04-30T04:53:13.467Z,1672
2017-04-30T04:53:53.926Z,1688
2017-04-30T04:54:34.468Z,1704
2017-04-30T04:55:14.937Z,1736
2017-04-30T04:55:55.463Z,1748
2017-04-30T04:56:35.945Z,1760
2017-04-30T04:57:16.434Z,1784
2017-04-30T04:57:56.928Z,1808
2017-04-30T04:58:37.437Z,1820
2017-04-30T04:59:17.972Z,1836
2017-04-30T04:59:58.482Z,1860
2017-04-30T05:00:38.984Z,1876
2017-04-30T05:01:19.492Z,1904
2017-04-30T05:02:00.012Z,1912
2017-04-30T05:02:40.518Z,1924
2017-04-30T05:03:21.095Z,1948
2017-04-30T05:04:01.615Z,1960
2017-04-30T05:04:42.179Z,1976
2017-04-30T05:05:22.659Z,1992
2017-04-30T05:06:03.181Z,2008
2017-04-30T05:06:43.707Z,2028
2017-04-30T05:07:24.221Z,2040
2017-04-30T05:08:04.746Z,2064
2017-04-30T05:08:45.274Z,2080
2017-04-30T05:09:25.779Z,2092
2017-04-30T05:10:06.352Z,2112
2017-04-30T05:10:46.865Z,2128
2017-04-30T05:11:27.413Z,2140
2017-04-30T05:12:07.920Z,2156
2017-04-30T05:12:48.446Z,2168
2017-04-30T05:13:28.959Z,2184
2017-04-30T05:14:09.491Z,2200
2017-04-30T05:14:50.026Z,2220
2017-04-30T05:15:30.543Z,2236
2017-04-30T05:16:11.060Z,2244
2017-04-30T05:16:51.592Z,2256
2017-04-30T05:17:32.112Z,2268
2017-04-30T05:18:12.634Z,2276
2017-04-30T05:18:53.150Z,2296
2017-04-30T05:19:33.752Z,2304
2017-04-30T05:20:14.477Z,2316
2017-04-30T05:20:54.943Z,2324
2017-04-30T05:21:35.428Z,2348
2017-04-30T05:22:15.954Z,2352
2017-04-30T05:22:56.488Z,2368
2017-04-30T05:23:37.000Z,2376
2017-04-30T05:24:17.517Z,2392
2017-04-30T05:24:58.032Z,2400
2017-04-30T05:25:38.551Z,2416
2017-04-30T05:26:19.086Z,2432
2017-04-30T05:26:59.572Z,2436
2017-04-30T05:27:40.085Z,2456
2017-04-30T05:28:20.594Z,2472
2017-04-30T05:29:01.108Z,2476
2017-04-30T05:29:41.609Z,2496
2017-04-30T05:30:22.217Z,2504
2017-04-30T05:31:02.735Z,2520
2017-04-30T05:31:43.260Z,2544
2017-04-30T05:32:23.768Z,2548
2017-04-30T05:33:04.282Z,2584
2017-04-30T05:33:44.788Z,2632
2017-04-30T05:34:25.281Z,2908
2017-04-30T05:35:05.766Z,2904
2017-04-30T05:35:46.293Z,3608
2017-04-30T05:36:26.794Z,4360
2017-04-30T05:37:07.225Z,5148
2017-04-30T05:37:47.705Z,5984
2017-04-30T05:38:28.200Z,6400
2017-04-30T05:39:08.692Z,6684
2017-04-30T05:39:49.211Z,6808
2017-04-30T05:40:29.734Z,7148
2017-04-30T05:41:10.254Z,7316
2017-04-30T05:41:50.774Z,7464
2017-04-30T05:42:31.289Z,7724
2017-04-30T05:43:11.798Z,8180
2017-04-30T05:43:52.321Z,8428
2017-04-30T05:44:32.845Z,8416
2017-04-30T05:45:13.359Z,8380
2017-04-30T05:45:53.871Z,8184
2017-04-30T05:46:34.384Z,7848
2017-04-30T05:47:14.896Z,7600
2017-04-30T05:47:55.413Z,7316
2017-04-30T05:48:35.935Z,7112
2017-04-30T05:49:16.459Z,7104
2017-04-30T05:49:56.979Z,7132
2017-04-30T05:50:37.500Z,7008
2017-04-30T05:51:18.018Z,6752
2017-04-30T05:51:58.540Z,6544
2017-04-30T05:52:39.058Z,6112
2017-04-30T05:53:19.570Z,5464
2017-04-30T05:54:00.083Z,4804
2017-04-30T05:54:40.607Z,4300
2017-04-30T05:55:21.134Z,4048
2017-04-30T05:56:01.651Z,3968
2017-04-30T05:56:42.155Z,3896
2017-04-30T05:57:22.672Z,3900
2017-04-30T05:58:03.183Z,4004
2017-04-30T05:58:43.707Z,4132
2017-04-30T05:59:24.230Z,4252
2017-04-30T06:00:04.753Z,4444
2017-04-30T06:00:45.298Z,4700
2017-04-30T06:01:25.796Z,5072
2017-04-30T06:02:06.306Z,5532
2017-04-30T06:02:46.800Z,5628
2017-04-30T06:03:27.323Z,5728
2017-04-30T06:04:07.839Z,5768
2017-04-30T06:04:48.433Z,5652
2017-04-30T06:05:28.954Z,5540
2017-04-30T06:06:09.472Z,5544
2017-04-30T06:06:49.992Z,5392
2017-04-30T06:07:30.503Z,5228
2017-04-30T06:08:11.030Z,5256
2017-04-30T06:08:51.549Z,5140
2017-04-30T06:09:32.078Z,5120
2017-04-30T06:10:12.589Z,5044
2017-04-30T06:10:53.123Z,4980
2017-04-30T06:11:33.623Z,4856
2017-04-30T06:12:14.138Z,4736
2017-04-30T06:12:54.646Z,4600
2017-04-30T06:13:35.179Z,4476
2017-04-30T06:14:15.786Z,4364
2017-04-30T06:14:56.324Z,4236
2017-04-30T06:15:36.838Z,4164
2017-04-30T06:16:17.347Z,4092
2017-04-30T06:16:57.873Z,4060
2017-04-30T06:17:38.379Z,4072
2017-04-30T06:18:18.927Z,4084
2017-04-30T06:18:59.377Z,4084
2017-04-30T06:19:39.871Z,4056
2017-04-30T06:20:20.383Z,4032
2017-04-30T06:21:00.892Z,3936
2017-04-30T06:21:41.412Z,3912
2017-04-30T06:22:21.915Z,3948
2017-04-30T06:23:02.429Z,3936
2017-04-30T06:23:42.970Z,3888
2017-04-30T06:24:23.505Z,3788
2017-04-30T06:25:04.023Z,3772
2017-04-30T06:25:44.533Z,3820
2017-04-30T06:26:25.056Z,3688
2017-04-30T06:27:05.597Z,3808
2017-04-30T06:27:46.119Z,3928
2017-04-30T06:28:26.623Z,4004
2017-04-30T06:29:07.125Z,4004
2017-04-30T06:29:47.619Z,4028
2017-04-30T06:30:28.135Z,4040
2017-04-30T06:31:08.655Z,4040
2017-04-30T06:31:49.174Z,4056
2017-04-30T06:32:29.700Z,4160
2017-04-30T06:33:10.209Z,4232
2017-04-30T06:33:50.702Z,4340
2017-04-30T06:34:31.229Z,4492
2017-04-30T06:35:11.682Z,4620
2017-04-30T06:35:52.209Z,4776
2017-04-30T06:36:32.733Z,4860
2017-04-30T06:37:13.252Z,4980
2017-04-30T06:37:53.779Z,5172
2017-04-30T06:38:34.288Z,5376
2017-04-30T06:39:14.804Z,5584
2017-04-30T06:39:55.322Z,5688
2017-04-30T06:40:35.840Z,5836
2017-04-30T06:41:16.369Z,5980
2017-04-30T06:41:56.896Z,6080
2017-04-30T06:42:37.388Z,6152
2017-04-30T06:43:17.913Z,6208
2017-04-30T06:43:58.449Z,6260
2017-04-30T06:44:39.016Z,6288
2017-04-30T06:45:19.574Z,6304
2017-04-30T06:46:00.109Z,6316
2017-04-30T06:46:40.631Z,6312
2017-04-30T06:47:21.143Z,6324
2017-04-30T06:48:01.661Z,6336
2017-04-30T06:48:42.185Z,6336
2017-04-30T06:49:22.685Z,6340
2017-04-30T06:50:03.213Z,6336
2017-04-30T06:50:43.714Z,6356
2017-04-30T06:51:24.227Z,6372
2017-04-30T06:52:04.738Z,6396
2017-04-30T06:52:45.226Z,6396
2017-04-30T06:53:25.745Z,6404
2017-04-30T06:54:06.253Z,6440
2017-04-30T06:54:46.771Z,6448
2017-04-30T06:55:27.291Z,6460
2017-04-30T06:56:07.807Z,6464
2017-04-30T06:56:48.316Z,6480
2017-04-30T06:57:28.847Z,6496
2017-04-30T06:58:09.355Z,6488
2017-04-30T06:58:49.879Z,6504
2017-04-30T06:59:30.401Z,6492
2017-04-30T07:00:10.933Z,6500
2017-04-30T07:00:51.457Z,6496
2017-04-30T07:01:31.977Z,6500
2017-04-30T07:02:12.502Z,6476
2017-04-30T07:02:53.024Z,6480
2017-04-30T07:03:33.551Z,6416
2017-04-30T07:04:14.087Z,6400
2017-04-30T07:04:54.617Z,6368
2017-04-30T07:05:35.157Z,6244
2017-04-30T07:06:15.675Z,6316
2017-04-30T07:06:56.201Z,6300
2017-04-30T07:07:36.724Z,6344
2017-04-30T07:08:17.252Z,6384
2017-04-30T07:08:57.774Z,6404
2017-04-30T07:09:38.295Z,6404
2017-04-30T07:10:18.812Z,6380
2017-04-30T07:10:59.327Z,6360
2017-04-30T07:11:39.848Z,6332
2017-04-30T07:12:20.360Z,6284
2017-04-30T07:13:00.893Z,6272
2017-04-30T07:13:41.426Z,6272
2017-04-30T07:14:21.962Z,6284
2017-04-30T07:15:02.489Z,6260
2017-04-30T07:15:43.012Z,6232
2017-04-30T07:16:23.520Z,6220
2017-04-30T07:17:04.040Z,6208
2017-04-30T07:17:44.560Z,6072
2017-04-30T07:18:25.108Z,6128
2017-04-30T07:19:05.627Z,6128
2017-04-30T07:19:46.118Z,6132
2017-04-30T07:20:26.622Z,6100
2017-04-30T07:21:07.154Z,6104
2017-04-30T07:21:47.619Z,6088
2017-04-30T07:22:28.109Z,6064
2017-04-30T07:23:08.628Z,6048
2017-04-30T07:23:49.145Z,6036
2017-04-30T07:24:29.647Z,6020
2017-04-30T07:25:10.165Z,6004
2017-04-30T07:25:50.833Z,5980
2017-04-30T07:26:31.113Z,5952
2017-04-30T07:27:11.606Z,5932
2017-04-30T07:27:52.099Z,5900
2017-04-30T07:28:32.607Z,5864
2017-04-30T07:29:13.125Z,5844
2017-04-30T07:29:53.579Z,5824
2017-04-30T07:30:34.051Z,5792
2017-04-30T07:31:14.555Z,5756
2017-04-30T07:31:55.055Z,5728
2017-04-30T07:32:35.557Z,5708
2017-04-30T07:33:16.029Z,5688
2017-04-30T07:33:56.529Z,5656
2017-04-30T07:34:37.046Z,5628
2017-04-30T07:35:17.539Z,5596
2017-04-30T07:35:58.036Z,5568
2017-04-30T07:36:38.664Z,5528
2017-04-30T07:37:19.196Z,5508
2017-04-30T07:37:59.666Z,5484
2017-04-30T07:38:40.186Z,5440
2017-04-30T07:39:20.676Z,5400
2017-04-30T07:40:01.181Z,5368
2017-04-30T07:40:41.696Z,5332
2017-04-30T07:41:22.257Z,5292
2017-04-30T07:42:02.778Z,5260
2017-04-30T07:42:43.319Z,5240
2017-04-30T07:43:23.787Z,5208
2017-04-30T07:44:04.275Z,5172
2017-04-30T07:44:44.762Z,5120
2017-04-30T07:45:25.261Z,5080
2017-04-30T07:46:05.780Z,5056
2017-04-30T07:46:46.239Z,5028
2017-04-30T07:47:27.383Z,4992
2017-04-30T07:48:07.961Z,4968
2017-04-30T07:48:48.437Z,4940
2017-04-30T07:49:28.905Z,4908
2017-04-30T07:50:09.370Z,4880
2017-04-30T07:50:49.925Z,4852
2017-04-30T07:51:30.398Z,4824
2017-04-30T07:52:10.891Z,4784
2017-04-30T07:52:51.436Z,4740
2017-04-30T07:53:31.930Z,4724
2017-04-30T07:54:12.427Z,4704
2017-04-30T07:54:52.933Z,4676
2017-04-30T07:55:33.458Z,4660
2017-04-30T07:56:14.094Z,4644
2017-04-30T07:56:55.272Z,4608
2017-04-30T07:57:35.517Z,4576
2017-04-30T07:58:16.273Z,4548
2017-04-30T07:58:57.322Z,4520
2017-04-30T07:59:37.583Z,4492
2017-04-30T08:00:17.885Z,4452
2017-04-30T08:00:58.236Z,4428
2017-04-30T08:01:38.722Z,4404
2017-04-30T08:02:19.229Z,4344
2017-04-30T08:02:59.707Z,4244
2017-04-30T08:03:40.195Z,4100
2017-04-30T08:04:20.711Z,3940
2017-04-30T08:05:01.434Z,3784
2017-04-30T08:05:42.005Z,3688
2017-04-30T08:06:22.533Z,3624
2017-04-30T08:07:03.455Z,3596
2017-04-30T08:07:43.959Z,3580
2017-04-30T08:08:24.460Z,3564
2017-04-30T08:09:04.959Z,3544
2017-04-30T08:09:45.447Z,3540
2017-04-30T08:10:26.830Z,3516
2017-04-30T08:11:06.891Z,3508
2017-04-30T08:11:47.450Z,3500
2017-04-30T08:12:27.996Z,3476
2017-04-30T08:13:08.610Z,3464
2017-04-30T08:13:49.031Z,3440
2017-04-30T08:14:29.515Z,3420
2017-04-30T08:15:10.040Z,3392
2017-04-30T08:15:50.545Z,3376
2017-04-30T08:16:31.168Z,3348
2017-04-30T08:17:11.688Z,3324
2017-04-30T08:17:52.436Z,3308
2017-04-30T08:18:32.944Z,3276
2017-04-30T08:19:13.448Z,3252
2017-04-30T08:19:53.986Z,3224
2017-04-30T08:20:34.494Z,3204
2017-04-30T08:21:14.991Z,3196
2017-04-30T08:21:55.529Z,3184
2017-04-30T08:22:36.082Z,3164
2017-04-30T08:23:16.630Z,3140
2017-04-30T08:23:57.429Z,3112
2017-04-30T08:24:37.961Z,3092
2017-04-30T08:25:18.547Z,3072
2017-04-30T08:25:59.048Z,3044
2017-04-30T08:26:39.580Z,3028
2017-04-30T08:27:20.144Z,3008
2017-04-30T08:28:00.568Z,2988
2017-04-30T08:28:41.027Z,2976
2017-04-30T08:29:21.559Z,2964
2017-04-30T08:30:02.188Z,2956
2017-04-30T08:30:42.720Z,2948
2017-04-30T08:31:23.216Z,2956
2017-04-30T08:32:03.761Z,2940
2017-04-30T08:32:44.336Z,2940
2017-04-30T08:33:24.851Z,2932
2017-04-30T08:34:05.380Z,2924
2017-04-30T08:34:45.884Z,2916
2017-04-30T08:35:27.498Z,2916
2017-04-30T08:36:07.912Z,2908
2017-04-30T08:36:48.727Z,2900
2017-04-30T08:37:29.049Z,2892
2017-04-30T08:38:09.403Z,2880
2017-04-30T08:38:49.948Z,2864
2017-04-30T08:39:30.450Z,2852
2017-04-30T08:40:10.959Z,2856
2017-04-30T08:40:51.497Z,2856
2017-04-30T08:41:32.272Z,2852
2017-04-30T08:42:13.044Z,2840
2017-04-30T08:42:53.545Z,2832
2017-04-30T08:43:34.065Z,2836
2017-04-30T08:44:14.553Z,2836
2017-04-30T08:44:55.084Z,2828
2017-04-30T08:45:35.563Z,2832
2017-04-30T08:46:16.424Z,2820
2017-04-30T08:46:56.957Z,2828
2017-04-30T08:47:37.348Z,2808
2017-04-30T08:48:17.826Z,2808
2017-04-30T08:48:58.322Z,2804
2017-04-30T08:49:38.838Z,2796
2017-04-30T08:50:19.309Z,2788
2017-04-30T08:50:59.861Z,2788
2017-04-30T08:51:40.342Z,2788
2017-04-30T08:52:20.864Z,2784
2017-04-30T08:53:01.387Z,2772
2017-04-30T08:53:41.894Z,2772
2017-04-30T08:54:22.388Z,2768
2017-04-30T08:55:02.994Z,2776
2017-04-30T08:55:43.542Z,2768
2017-04-30T08:56:23.991Z,2776
2017-04-30T08:57:04.534Z,2776
2017-04-30T08:57:45.067Z,2772
2017-04-30T08:58:25.559Z,2768
2017-04-30T08:59:06.031Z,2764
2017-04-30T08:59:46.523Z,2764
2017-04-30T09:00:27.102Z,2760
2017-04-30T09:01:07.634Z,2764
2017-04-30T09:01:48.125Z,2756
2017-04-30T09:02:28.655Z,2760
2017-04-30T09:03:09.159Z,2752
2017-04-30T09:03:49.659Z,2760
2017-04-30T09:04:30.159Z,2756
2017-04-30T09:05:10.646Z,2764
2017-04-30T09:05:51.183Z,2756
2017-04-30T09:06:31.645Z,2752
2017-04-30T09:07:12.205Z,2760
2017-04-30T09:07:52.622Z,2760
2017-04-30T09:08:33.142Z,2768
2017-04-30T09:09:13.648Z,2772
2017-04-30T09:09:54.156Z,2764
2017-04-30T09:10:34.736Z,2760
2017-04-30T09:11:15.193Z,2764
2017-04-30T09:11:55.665Z,2768
2017-04-30T09:12:36.174Z,2772
2017-04-30T09:13:16.679Z,2776
2017-04-30T09:13:57.204Z,2784
2017-04-30T09:14:37.729Z,2792
2017-04-30T09:15:18.272Z,2792
2017-04-30T09:15:58.760Z,2796
2017-04-30T09:16:39.232Z,2800
2017-04-30T09:17:19.726Z,2800
2017-04-30T09:18:00.223Z,2808
2017-04-30T09:18:40.717Z,2804
2017-04-30T09:19:21.256Z,2800
2017-04-30T09:20:01.732Z,2792
2017-04-30T09:20:42.233Z,2788
2017-04-30T09:21:22.780Z,2792
2017-04-30T09:22:03.305Z,2808
2017-04-30T09:22:43.772Z,2824
2017-04-30T09:23:24.281Z,2824
2017-04-30T09:24:04.755Z,2816
2017-04-30T09:24:45.286Z,2804
2017-04-30T09:25:25.770Z,2796